createdAt,value
2022-12-28T00:01:21.954Z,3.80
2022-12-28T00:03:49.254Z,6.70
2022-12-28T00:06:16.806Z,3.75
2022-12-28T00:08:43.666Z,3.83
2022-12-28T00:11:24.454Z,4.75
2022-12-28T00:13:56.217Z,5.70
2022-12-28T00:16:34.953Z,4.10
2022-12-28T00:19:04.202Z,3.53
2022-12-28T00:21:31.560Z,3.95
2022-12-28T00:23:59.364Z,4.10
2022-12-28T00:26:32.847Z,3.72
2022-12-28T00:29:04.597Z,4.82
2022-12-28T00:31:33.201Z,3.50
2022-12-28T00:33:59.724Z,4.75
2022-12-28T00:37:08.300Z,4.40
2022-12-28T00:39:12.835Z,4.72
2022-12-28T00:41:39.210Z,5.63
2022-12-28T00:44:05.600Z,4.40
2022-12-28T00:46:32.298Z,4.10
2022-12-28T00:48:58.747Z,4.97
2022-12-28T00:51:25.178Z,4.88
2022-12-28T00:53:51.598Z,3.88
2022-12-28T00:56:20.712Z,4.68
2022-12-28T00:58:47.507Z,4.10
2022-12-28T01:01:17.309Z,4.03
2022-12-28T01:03:43.925Z,4.60
2022-12-28T01:06:13.379Z,5.32
2022-12-28T01:08:40.265Z,4.28
2022-12-28T01:11:12.023Z,4.18
2022-12-28T01:13:38.645Z,4.13
2022-12-28T01:16:15.085Z,4.13
2022-12-28T01:18:42.095Z,5.43
2022-12-28T01:21:17.058Z,4.05
2022-12-28T01:23:44.875Z,3.97
2022-12-28T01:26:11.608Z,4.22
2022-12-28T01:28:38.018Z,3.85
2022-12-28T01:31:10.033Z,4.15
2022-12-28T01:33:36.668Z,4.25
2022-12-28T01:36:36.583Z,4.18
2022-12-28T01:39:05.680Z,4.05
2022-12-28T01:41:35.840Z,4.20
2022-12-28T01:44:02.235Z,4.30
2022-12-28T01:46:39.944Z,4.45
2022-12-28T01:49:52.706Z,4.45
2022-12-28T01:52:41.519Z,4.22
2022-12-28T01:55:13.743Z,4.20
2022-12-28T01:57:51.407Z,4.47
2022-12-28T02:00:18.469Z,4.30
2022-12-28T02:02:56.866Z,3.75
2022-12-28T02:05:28.571Z,3.78
2022-12-28T02:10:44.411Z,5.03
2022-12-28T02:13:14.697Z,4.45
2022-12-28T02:15:41.408Z,4.25
2022-12-28T02:18:09.106Z,4.72
2022-12-28T02:21:00.125Z,3.97
2022-12-28T02:23:54.375Z,4.28
2022-12-28T02:26:46.207Z,3.92
2022-12-28T02:31:50.238Z,3.60
2022-12-28T02:34:26.785Z,3.85
2022-12-28T02:37:01.863Z,4.63
2022-12-28T02:39:37.712Z,4.45
2022-12-28T02:42:05.869Z,3.30
2022-12-28T02:44:50.693Z,3.63
2022-12-28T02:47:35.833Z,3.45
2022-12-28T02:50:06.757Z,3.90
2022-12-28T02:52:45.440Z,3.17
2022-12-28T02:55:42.554Z,4.07
2022-12-28T02:58:36.189Z,3.25
2022-12-28T03:01:24.219Z,3.60
2022-12-28T03:04:15.910Z,3.58
2022-12-28T03:07:19.586Z,3.38
2022-12-28T03:09:53.780Z,3.00
2022-12-28T03:12:29.789Z,3.08
2022-12-28T03:15:30.019Z,3.85
2022-12-28T03:18:38.490Z,3.75
2022-12-28T03:21:28.343Z,3.15
2022-12-28T03:24:14.520Z,3.33
2022-12-28T03:27:08.241Z,3.22
2022-12-28T03:29:58.865Z,3.58
2022-12-28T03:32:25.542Z,2.80
2022-12-28T03:34:52.207Z,3.08
2022-12-28T03:37:34.039Z,3.65
2022-12-28T03:40:24.682Z,3.28
2022-12-28T03:43:14.253Z,3.95
2022-12-28T03:45:52.510Z,3.00
2022-12-28T03:48:19.735Z,4.68
2022-12-28T03:50:49.146Z,3.13
2022-12-28T03:53:18.819Z,3.75
2022-12-28T03:55:45.474Z,2.92
2022-12-28T03:58:11.953Z,3.35
2022-12-28T04:00:38.369Z,3.53
2022-12-28T04:03:04.898Z,5.00
2022-12-28T04:05:31.380Z,3.30
2022-12-28T04:07:57.838Z,4.55
2022-12-28T04:10:24.278Z,3.80
2022-12-28T04:12:54.691Z,4.32
2022-12-28T04:15:21.105Z,4.20
2022-12-28T04:17:47.535Z,3.92
2022-12-28T04:20:13.927Z,2.97
2022-12-28T04:22:40.316Z,4.43
2022-12-28T04:25:07.103Z,4.47
2022-12-28T04:27:33.561Z,3.90
2022-12-28T04:29:59.974Z,3.90
2022-12-28T04:32:26.443Z,3.83
2022-12-28T04:34:52.893Z,4.50
2022-12-28T04:37:19.279Z,3.92
2022-12-28T04:39:56.233Z,3.72
2022-12-28T04:42:24.723Z,3.78
2022-12-28T04:44:51.234Z,3.75
2022-12-28T04:47:17.619Z,3.85
2022-12-28T04:49:44.010Z,3.20
2022-12-28T04:52:10.419Z,3.55
2022-12-28T04:54:36.847Z,3.40
2022-12-28T04:57:03.404Z,3.65
2022-12-28T04:59:30.027Z,3.90
2022-12-28T05:01:56.534Z,3.83
2022-12-28T05:04:23.003Z,3.28
2022-12-28T05:06:49.478Z,3.55
2022-12-28T05:09:16.018Z,3.70
2022-12-28T05:11:42.428Z,4.72
2022-12-28T05:14:08.876Z,3.42
2022-12-28T05:16:35.301Z,3.55
2022-12-28T05:19:01.781Z,3.50
2022-12-28T05:21:28.626Z,4.28
2022-12-28T05:23:55.880Z,3.35
2022-12-28T05:26:24.788Z,3.13
2022-12-28T05:28:51.789Z,3.35
2022-12-28T05:31:21.163Z,3.25
2022-12-28T05:33:48.095Z,2.92
2022-12-28T05:36:24.725Z,2.70
2022-12-28T05:38:52.360Z,2.22
2022-12-28T05:41:21.674Z,2.67
2022-12-28T05:43:49.144Z,2.85
2022-12-28T05:46:21.768Z,2.42
2022-12-28T05:48:48.462Z,2.63
2022-12-28T05:51:17.480Z,3.30
2022-12-28T05:53:43.989Z,2.90
2022-12-28T05:56:16.907Z,2.38
2022-12-28T05:58:44.611Z,3.90
2022-12-28T06:01:13.547Z,2.35
2022-12-28T06:03:40.839Z,2.30
2022-12-28T06:06:12.849Z,3.55
2022-12-28T06:08:40.529Z,3.08
2022-12-28T06:11:09.522Z,2.70
2022-12-28T06:13:36.709Z,2.35
2022-12-28T06:16:13.173Z,3.17
2022-12-28T06:18:40.210Z,2.20
2022-12-28T06:21:18.935Z,2.80
2022-12-28T06:23:46.329Z,2.10
2022-12-28T06:26:15.615Z,2.25
2022-12-28T06:28:42.567Z,2.45
2022-12-28T06:31:13.136Z,2.80
2022-12-28T06:33:40.045Z,3.00
2022-12-28T06:36:20.312Z,2.63
2022-12-28T06:38:48.181Z,2.55
2022-12-28T06:41:15.416Z,1.90
2022-12-28T06:43:43.230Z,2.40
2022-12-28T06:46:10.521Z,2.42
2022-12-28T06:48:37.517Z,2.45
2022-12-28T06:51:11.700Z,2.45
2022-12-28T06:53:38.964Z,2.92
2022-12-28T06:56:08.147Z,3.22
2022-12-28T06:58:34.592Z,3.05
2022-12-28T07:01:09.448Z,2.50
2022-12-28T07:03:36.504Z,2.17
2022-12-28T07:06:04.455Z,2.38
2022-12-28T07:08:32.107Z,2.25
2022-12-28T07:11:13.563Z,3.03
2022-12-28T07:13:40.183Z,2.20
2022-12-28T07:16:11.199Z,2.47
2022-12-28T07:18:38.266Z,2.10
2022-12-28T07:21:07.837Z,2.00
2022-12-28T07:23:35.002Z,3.30
2022-12-28T07:26:16.111Z,2.22
2022-12-28T07:28:44.982Z,2.15
2022-12-28T07:31:14.339Z,2.72
2022-12-28T07:33:41.144Z,3.30
2022-12-28T07:36:09.930Z,2.17
2022-12-28T07:38:36.367Z,2.00
2022-12-28T07:41:08.304Z,2.78
2022-12-28T07:43:35.393Z,2.40
2022-12-28T07:46:01.785Z,2.25
2022-12-28T07:48:32.851Z,2.33
2022-12-28T07:51:07.557Z,2.33
2022-12-28T07:53:34.428Z,2.83
2022-12-28T07:56:00.850Z,2.75
2022-12-28T07:58:27.248Z,3.60
2022-12-28T08:00:53.692Z,2.35
2022-12-28T08:03:20.439Z,2.50
2022-12-28T08:05:46.907Z,2.00
2022-12-28T08:08:13.341Z,2.45
2022-12-28T08:10:39.781Z,2.58
2022-12-28T08:13:06.756Z,2.40
2022-12-28T08:15:33.258Z,3.03
2022-12-28T08:17:59.663Z,2.55
2022-12-28T08:20:26.159Z,2.53
2022-12-28T08:22:53.306Z,3.40
2022-12-28T08:25:19.779Z,4.75
2022-12-28T08:27:46.195Z,2.85
2022-12-28T08:30:13.001Z,2.70
2022-12-28T08:32:39.410Z,2.85
2022-12-28T08:35:06.148Z,2.90
2022-12-28T08:37:32.584Z,3.10
2022-12-28T08:39:58.964Z,2.63
2022-12-28T08:42:25.479Z,3.63
2022-12-28T08:44:51.885Z,3.17
2022-12-28T08:47:18.326Z,3.30
2022-12-28T08:49:44.761Z,3.60
2022-12-28T08:52:11.270Z,3.28
2022-12-28T08:54:37.661Z,3.20
2022-12-28T08:57:04.064Z,3.10
2022-12-28T08:59:30.468Z,3.38
2022-12-28T09:01:57.049Z,3.83
2022-12-28T09:04:23.593Z,3.15
2022-12-28T09:06:50.427Z,3.50
2022-12-28T09:09:19.550Z,3.40
2022-12-28T09:11:47.017Z,3.85
2022-12-28T09:14:22.106Z,4.13
2022-12-28T09:16:50.240Z,3.38
2022-12-28T09:19:16.998Z,4.00
2022-12-28T09:21:45.143Z,3.53
2022-12-28T09:24:13.020Z,3.45
2022-12-28T09:26:39.558Z,4.03
2022-12-28T09:29:08.815Z,5.03
2022-12-28T09:31:36.951Z,3.42
2022-12-28T09:36:51.856Z,4.47
2022-12-28T09:39:20.827Z,5.95
2022-12-28T09:41:52.655Z,4.63
2022-12-28T09:47:03.272Z,3.38
2022-12-28T09:49:44.904Z,3.05
2022-12-28T09:52:14.284Z,3.00
2022-12-28T09:54:41.731Z,3.97
2022-12-28T09:57:14.360Z,3.20
2022-12-28T09:59:41.338Z,3.58
2022-12-28T10:02:19.320Z,3.47
2022-12-28T10:04:49.494Z,3.80
2022-12-28T10:07:16.409Z,4.03
2022-12-28T10:09:42.936Z,3.53
2022-12-28T10:12:22.041Z,3.63
2022-12-28T10:14:49.540Z,3.50
2022-12-28T10:17:20.537Z,3.70
2022-12-28T10:19:47.693Z,3.25
2022-12-28T10:22:18.966Z,3.85
2022-12-28T10:24:46.031Z,3.40
2022-12-28T10:27:30.668Z,4.32
2022-12-28T10:30:01.199Z,3.40
2022-12-28T10:32:37.096Z,3.00
2022-12-28T10:35:04.606Z,10.75
2022-12-28T10:37:34.953Z,4.00
2022-12-28T10:40:16.886Z,5.30
2022-12-28T10:42:46.477Z,3.72
2022-12-28T10:45:22.638Z,3.55
2022-12-28T10:47:53.128Z,3.58
2022-12-28T10:50:49.385Z,4.15
2022-12-28T10:53:31.225Z,3.33
2022-12-28T10:58:29.974Z,2.78
2022-12-28T11:03:56.546Z,3.10
2022-12-28T11:06:29.150Z,2.70
2022-12-28T11:09:14.803Z,2.80
2022-12-28T11:11:43.117Z,3.13
2022-12-28T11:14:31.983Z,3.58
2022-12-28T11:17:15.336Z,2.70
2022-12-28T11:19:42.071Z,3.17
2022-12-28T11:22:13.622Z,3.13
2022-12-28T11:24:40.656Z,2.83
2022-12-28T11:27:13.875Z,2.90
2022-12-28T11:29:45.167Z,3.25
2022-12-28T11:35:07.934Z,3.47
2022-12-28T11:37:34.353Z,3.13
2022-12-28T11:40:00.915Z,2.60
2022-12-28T11:42:41.014Z,3.53
2022-12-28T11:45:35.721Z,2.80
2022-12-28T11:48:41.152Z,2.58
2022-12-28T11:51:30.556Z,3.53
2022-12-28T11:53:59.899Z,2.60
2022-12-28T11:56:44.392Z,2.75
2022-12-28T11:59:26.245Z,2.20
2022-12-28T12:04:29.805Z,2.50
2022-12-28T12:07:01.185Z,2.60
2022-12-28T12:09:32.710Z,2.47
2022-12-28T12:12:02.147Z,2.28
2022-12-28T12:14:35.154Z,2.40
2022-12-28T12:17:07.571Z,2.55
2022-12-28T12:19:38.717Z,2.15
2022-12-28T12:22:20.289Z,2.40
2022-12-28T12:24:55.223Z,5.68
2022-12-28T12:27:33.630Z,5.03
2022-12-28T12:30:02.990Z,5.78
2022-12-28T12:32:42.789Z,5.00
2022-12-28T12:35:15.476Z,5.05
2022-12-28T12:37:56.473Z,4.93
2022-12-28T12:40:35.563Z,3.08
2022-12-28T12:43:13.646Z,2.05
2022-12-28T12:46:08.261Z,2.72
2022-12-28T12:49:00.938Z,2.17
2022-12-28T12:52:06.261Z,1.95
2022-12-28T12:54:41.534Z,1.90
2022-12-28T12:57:21.289Z,1.88
2022-12-28T13:00:10.089Z,2.85
2022-12-28T13:03:21.392Z,1.83
2022-12-28T13:05:53.970Z,2.50
2022-12-28T13:08:25.323Z,2.00
2022-12-28T13:10:53.562Z,1.90
2022-12-28T13:13:31.035Z,2.15
2022-12-28T13:16:02.871Z,1.85
2022-12-28T13:18:46.227Z,2.00
2022-12-28T13:21:18.760Z,1.67
2022-12-28T13:23:46.600Z,2.25
2022-12-28T13:26:15.213Z,2.05
2022-12-28T13:28:52.788Z,2.28
2022-12-28T13:31:22.649Z,2.28
2022-12-28T13:34:01.071Z,2.13
2022-12-28T13:36:27.905Z,1.65
2022-12-28T13:39:10.313Z,1.65
2022-12-28T13:41:38.539Z,1.77
2022-12-28T13:44:14.210Z,1.63
2022-12-28T13:46:44.415Z,1.77
2022-12-28T13:49:12.206Z,1.77
2022-12-28T13:51:40.551Z,1.92
2022-12-28T13:54:09.379Z,2.03
2022-12-28T13:56:39.257Z,1.88
2022-12-28T13:59:14.049Z,1.70
2022-12-28T14:01:43.845Z,1.92
2022-12-28T14:07:03.389Z,1.95
2022-12-28T14:09:30.038Z,1.98
2022-12-28T14:11:57.521Z,1.80
2022-12-28T14:14:24.517Z,2.05
2022-12-28T14:16:51.332Z,1.60
2022-12-28T14:19:17.986Z,1.75
2022-12-28T14:21:45.487Z,1.77
2022-12-28T14:24:15.049Z,2.10
2022-12-28T14:27:07.635Z,2.08
2022-12-28T14:29:34.899Z,2.05
2022-12-28T14:32:04.591Z,1.65
2022-12-28T14:34:34.636Z,1.38
2022-12-28T14:37:01.636Z,1.48
2022-12-28T14:39:34.698Z,1.50
2022-12-28T14:42:04.352Z,1.58
2022-12-28T14:44:32.749Z,1.92
2022-12-28T14:47:00.803Z,1.23
2022-12-28T14:49:30.095Z,1.45
2022-12-28T14:52:06.061Z,2.00
2022-12-28T14:54:44.066Z,1.92
2022-12-28T14:57:40.883Z,1.50
2022-12-28T15:00:21.121Z,1.50
2022-12-28T15:02:48.298Z,1.40
2022-12-28T15:05:35.053Z,1.70
2022-12-28T15:08:02.017Z,1.23
2022-12-28T15:10:28.508Z,1.58
2022-12-28T15:12:54.971Z,1.88
2022-12-28T15:15:21.767Z,1.50
2022-12-28T15:17:48.343Z,1.83
2022-12-28T15:20:15.306Z,1.63
2022-12-28T15:22:41.857Z,2.20
2022-12-28T15:25:08.887Z,1.70
2022-12-28T15:27:35.331Z,1.60
2022-12-28T15:30:06.284Z,1.83
2022-12-28T15:32:33.724Z,1.80
2022-12-28T15:35:00.201Z,1.60
2022-12-28T15:37:26.696Z,1.70
2022-12-28T15:39:53.106Z,2.40
2022-12-28T15:42:19.614Z,1.73
2022-12-28T15:44:48.478Z,1.60
2022-12-28T15:47:15.022Z,1.30
2022-12-28T15:49:41.457Z,1.73
2022-12-28T15:52:07.936Z,1.48
2022-12-28T15:54:34.419Z,1.80
2022-12-28T15:57:00.815Z,1.75
2022-12-28T15:59:28.079Z,1.75
2022-12-28T16:01:55.034Z,1.65
2022-12-28T16:04:21.690Z,2.15
2022-12-28T16:06:48.217Z,2.00
2022-12-28T16:09:14.702Z,1.65
2022-12-28T16:11:41.744Z,2.00
2022-12-28T16:14:14.668Z,1.70
2022-12-28T16:16:41.964Z,1.80
2022-12-28T16:19:10.466Z,1.50
2022-12-28T16:21:36.910Z,1.77
2022-12-28T16:24:03.589Z,1.65
2022-12-28T16:26:30.052Z,1.70
2022-12-28T16:28:57.721Z,1.75
2022-12-28T16:31:32.575Z,2.10
2022-12-28T16:34:25.616Z,13.77
2022-12-28T16:36:56.858Z,7.82
2022-12-28T16:39:23.657Z,3.47
2022-12-28T16:41:50.117Z,2.13
2022-12-28T16:44:19.452Z,1.75
2022-12-28T16:46:46.300Z,2.92
2022-12-28T16:49:12.931Z,2.80
2022-12-28T16:51:42.117Z,3.17
2022-12-28T16:54:08.692Z,6.40
2022-12-28T16:56:35.156Z,5.13
2022-12-28T16:59:01.619Z,2.90
2022-12-28T17:01:28.607Z,2.70
2022-12-28T17:04:01.870Z,2.38
2022-12-28T17:06:30.624Z,2.20
2022-12-28T17:08:57.034Z,2.10
2022-12-28T17:11:23.533Z,2.28
2022-12-28T17:13:49.991Z,2.63
2022-12-28T17:16:16.547Z,2.63
2022-12-28T17:18:43.227Z,3.15
2022-12-28T17:21:10.300Z,2.30
2022-12-28T17:23:39.376Z,2.20
2022-12-28T17:26:06.496Z,2.20
2022-12-28T17:28:33.169Z,2.58
2022-12-28T17:31:09.706Z,2.28
2022-12-28T17:33:39.794Z,2.55
2022-12-28T17:36:07.876Z,2.47
2022-12-28T17:38:34.323Z,4.50
2022-12-28T17:41:06.799Z,5.85
2022-12-28T17:43:33.196Z,5.30
2022-12-28T17:46:03.126Z,3.00
2022-12-28T17:48:30.388Z,2.88
2022-12-28T17:50:58.926Z,2.53
2022-12-28T17:53:25.922Z,2.72
2022-12-28T17:55:52.472Z,2.47
2022-12-28T17:58:18.955Z,2.50
2022-12-28T18:00:45.421Z,3.10
2022-12-28T18:03:11.941Z,3.30
2022-12-28T18:05:38.364Z,2.75
2022-12-28T18:08:05.104Z,2.92
2022-12-28T18:10:31.599Z,2.90
2022-12-28T18:12:58.103Z,3.10
2022-12-28T18:15:27.334Z,3.30
2022-12-28T18:17:57.933Z,5.95
2022-12-28T18:20:24.393Z,4.75
2022-12-28T18:22:50.801Z,2.60
2022-12-28T18:25:17.420Z,3.00
2022-12-28T18:27:43.867Z,2.95
2022-12-28T18:30:10.990Z,3.50
2022-12-28T18:32:37.894Z,2.80
2022-12-28T18:35:04.878Z,2.72
2022-12-28T18:37:31.661Z,2.67
2022-12-28T18:39:58.209Z,2.33
2022-12-28T18:42:25.565Z,2.60
2022-12-28T18:44:52.075Z,2.78
2022-12-28T18:47:18.545Z,2.30
2022-12-28T18:49:47.325Z,2.65
2022-12-28T18:52:15.175Z,2.25
2022-12-28T18:54:41.663Z,2.42
2022-12-28T18:57:08.551Z,2.17
2022-12-28T18:59:35.010Z,2.60
2022-12-28T19:02:11.953Z,2.45
2022-12-28T19:04:43.426Z,3.05
2022-12-28T19:07:10.103Z,2.83
2022-12-28T19:09:36.652Z,3.03
2022-12-28T19:12:03.459Z,2.90
2022-12-28T19:14:29.970Z,2.13
2022-12-28T19:16:56.425Z,2.22
2022-12-28T19:19:22.891Z,2.60
2022-12-28T19:21:53.671Z,2.80
2022-12-28T19:24:23.231Z,2.55
2022-12-28T19:26:51.221Z,2.60
2022-12-28T19:29:17.779Z,2.30
2022-12-28T19:31:44.361Z,2.58
2022-12-28T19:34:10.971Z,3.00
2022-12-28T19:36:37.478Z,2.47
2022-12-28T19:39:04.072Z,2.45
2022-12-28T19:41:30.640Z,2.97
2022-12-28T19:43:57.135Z,2.65
2022-12-28T19:46:30.808Z,2.80
2022-12-28T19:48:59.292Z,3.35
2022-12-28T19:51:30.582Z,2.50
2022-12-28T19:53:58.528Z,3.13
2022-12-28T19:56:25.235Z,2.80
2022-12-28T19:58:52.425Z,2.78
2022-12-28T20:01:22.662Z,2.30
2022-12-28T20:03:49.277Z,3.15
2022-12-28T20:06:22.237Z,2.53
2022-12-28T20:08:50.800Z,2.72
2022-12-28T20:11:19.100Z,3.42
2022-12-28T20:13:50.756Z,5.10
2022-12-28T20:18:51.063Z,4.28
2022-12-28T20:21:20.550Z,3.72
2022-12-28T20:23:49.377Z,3.05
2022-12-28T20:26:16.188Z,2.65
2022-12-28T20:28:42.637Z,2.80
2022-12-28T20:31:12.500Z,2.63
2022-12-28T20:33:39.495Z,2.42
2022-12-28T20:36:08.908Z,2.42
2022-12-28T20:38:35.342Z,2.80
2022-12-28T20:41:08.953Z,2.92
2022-12-28T20:43:36.074Z,3.58
2022-12-28T20:46:03.120Z,2.92
2022-12-28T20:48:29.912Z,2.78
2022-12-28T20:51:00.533Z,2.58
2022-12-28T20:53:28.262Z,2.53
2022-12-28T20:55:54.661Z,2.70
2022-12-28T20:58:21.489Z,2.55
2022-12-28T21:00:48.115Z,2.88
2022-12-28T21:03:14.779Z,2.25
2022-12-28T21:05:41.316Z,2.45
2022-12-28T21:08:07.735Z,1.95
2022-12-28T21:10:34.170Z,2.53
2022-12-28T21:13:00.653Z,2.40
2022-12-28T21:15:27.194Z,2.25
2022-12-28T21:17:53.666Z,2.30
2022-12-28T21:20:20.118Z,2.88
2022-12-28T21:22:46.571Z,2.20
2022-12-28T21:25:12.966Z,2.47
2022-12-28T21:27:39.346Z,2.13
2022-12-28T21:30:06.509Z,1.90
2022-12-28T21:32:32.938Z,2.97
2022-12-28T21:34:59.404Z,2.50
2022-12-28T21:37:34.606Z,2.45
2022-12-28T21:40:06.322Z,2.47
2022-12-28T21:44:59.497Z,2.10
2022-12-28T21:47:26.020Z,2.28
2022-12-28T21:49:52.419Z,2.75
2022-12-28T21:52:19.042Z,2.88
2022-12-28T21:54:45.518Z,2.60
2022-12-28T21:57:12.813Z,2.63
2022-12-28T21:59:39.925Z,2.58
2022-12-28T22:02:36.689Z,2.55
2022-12-28T22:05:22.931Z,2.63
2022-12-28T22:08:10.162Z,2.33
2022-12-28T22:10:56.496Z,2.67
2022-12-28T22:13:23.185Z,2.28
2022-12-28T22:15:52.506Z,2.13
2022-12-28T22:18:44.861Z,2.38
2022-12-28T22:21:11.339Z,2.40
2022-12-28T22:23:37.778Z,3.15
2022-12-28T22:26:04.266Z,2.28
2022-12-28T22:28:30.985Z,2.20
2022-12-28T22:30:57.492Z,2.40
2022-12-28T22:33:23.912Z,2.28
2022-12-28T22:35:50.348Z,2.42
2022-12-28T22:38:16.719Z,2.38
2022-12-28T22:40:43.169Z,2.22
2022-12-28T22:43:09.610Z,2.33
2022-12-28T22:45:36.172Z,2.10
2022-12-28T22:48:02.647Z,2.00
2022-12-28T22:50:29.179Z,2.03
2022-12-28T22:52:56.533Z,2.10
2022-12-28T22:55:22.918Z,2.30
2022-12-28T22:57:49.410Z,2.25
2022-12-28T23:00:16.190Z,2.20
2022-12-28T23:02:43.063Z,2.20
2022-12-28T23:05:10.184Z,2.90
2022-12-28T23:07:38.463Z,2.03
2022-12-28T23:10:06.693Z,2.10
2022-12-28T23:12:33.656Z,2.17
2022-12-28T23:15:19.182Z,2.78
2022-12-28T23:17:48.120Z,2.17
2022-12-28T23:20:33.606Z,2.13
2022-12-28T23:23:18.415Z,1.98
2022-12-28T23:26:03.138Z,2.25
2022-12-28T23:28:29.617Z,2.15
2022-12-28T23:30:56.520Z,2.47
2022-12-28T23:33:23.577Z,2.10
2022-12-28T23:35:50.084Z,2.40
2022-12-28T23:38:16.516Z,2.17
2022-12-28T23:40:43.231Z,2.30
2022-12-28T23:43:09.912Z,1.80
2022-12-28T23:45:36.862Z,2.70
2022-12-28T23:48:04.327Z,2.22
2022-12-28T23:50:30.776Z,2.55
2022-12-28T23:52:57.152Z,2.17
2022-12-28T23:55:23.579Z,2.05
2022-12-28T23:57:50.052Z,1.98
